sensor_id;sensor_type;location;lat;lon;timestamp;P1;durP1;ratioP1;P2;durP2;ratioP2
71106;SDS011;58763;47.982;11.516;2023-03-31T00:01:24;11.05;;;5.70;;
71106;SDS011;58763;47.982;11.516;2023-03-31T00:03:50;9.80;;;5.45;;
71106;SDS011;58763;47.982;11.516;2023-03-31T00:06:15;10.02;;;5.40;;
71106;SDS011;58763;47.982;11.516;2023-03-31T00:08:44;10.32;;;5.70;;
71106;SDS011;58763;47.982;11.516;2023-03-31T00:11:10;12.25;;;5.70;;
71106;SDS011;58763;47.982;11.516;2023-03-31T00:13:36;13.18;;;5.85;;
71106;SDS011;58763;47.982;11.516;2023-03-31T00:16:03;10.05;;;6.10;;
71106;SDS011;58763;47.982;11.516;2023-03-31T00:18:31;10.75;;;6.35;;
71106;SDS011;58763;47.982;11.516;2023-03-31T00:23:32;11.88;;;5.90;;
71106;SDS011;58763;47.982;11.516;2023-03-31T00:25:58;10.05;;;5.70;;
71106;SDS011;58763;47.982;11.516;2023-03-31T00:28:24;11.32;;;6.18;;
71106;SDS011;58763;47.982;11.516;2023-03-31T00:30:49;10.98;;;5.97;;
71106;SDS011;58763;47.982;11.516;2023-03-31T00:33:15;11.38;;;5.60;;
71106;SDS011;58763;47.982;11.516;2023-03-31T00:35:41;11.65;;;5.72;;
71106;SDS011;58763;47.982;11.516;2023-03-31T00:38:07;10.07;;;6.22;;
71106;SDS011;58763;47.982;11.516;2023-03-31T00:40:36;10.75;;;5.72;;
71106;SDS011;58763;47.982;11.516;2023-03-31T00:43:15;10.75;;;6.43;;
71106;SDS011;58763;47.982;11.516;2023-03-31T00:45:50;9.90;;;6.03;;
71106;SDS011;58763;47.982;11.516;2023-03-31T00:48:17;10.65;;;5.72;;
71106;SDS011;58763;47.982;11.516;2023-03-31T00:50:52;10.82;;;5.60;;
71106;SDS011;58763;47.982;11.516;2023-03-31T00:53:20;12.13;;;5.85;;
71106;SDS011;58763;47.982;11.516;2023-03-31T00:55:50;9.85;;;5.78;;
71106;SDS011;58763;47.982;11.516;2023-03-31T00:58:19;9.88;;;6.25;;
71106;SDS011;58763;47.982;11.516;2023-03-31T01:00:47;12.25;;;6.28;;
71106;SDS011;58763;47.982;11.516;2023-03-31T01:03:15;14.95;;;6.68;;
71106;SDS011;58763;47.982;11.516;2023-03-31T01:05:46;11.35;;;6.30;;
71106;SDS011;58763;47.982;11.516;2023-03-31T01:08:16;9.77;;;5.93;;
71106;SDS011;58763;47.982;11.516;2023-03-31T01:10:45;10.70;;;5.88;;
71106;SDS011;58763;47.982;11.516;2023-03-31T01:13:14;9.35;;;5.80;;
71106;SDS011;58763;47.982;11.516;2023-03-31T01:15:42;9.77;;;5.90;;
71106;SDS011;58763;47.982;11.516;2023-03-31T01:18:08;9.15;;;5.45;;
71106;SDS011;58763;47.982;11.516;2023-03-31T01:26:19;9.77;;;5.60;;
71106;SDS011;58763;47.982;11.516;2023-03-31T01:34:34;9.20;;;5.40;;
71106;SDS011;58763;47.982;11.516;2023-03-31T01:37:46;10.45;;;5.78;;
71106;SDS011;58763;47.982;11.516;2023-03-31T01:43:33;11.10;;;5.70;;
71106;SDS011;58763;47.982;11.516;2023-03-31T01:46:10;11.02;;;6.03;;
71106;SDS011;58763;47.982;11.516;2023-03-31T02:00:03;11.65;;;5.60;;
71106;SDS011;58763;47.982;11.516;2023-03-31T02:02:41;8.52;;;5.78;;
71106;SDS011;58763;47.982;11.516;2023-03-31T02:05:21;10.73;;;5.82;;
71106;SDS011;58763;47.982;11.516;2023-03-31T02:07:53;9.18;;;5.38;;
71106;SDS011;58763;47.982;11.516;2023-03-31T02:10:22;11.50;;;6.07;;
71106;SDS011;58763;47.982;11.516;2023-03-31T02:12:50;11.38;;;6.32;;
71106;SDS011;58763;47.982;11.516;2023-03-31T02:15:21;11.32;;;6.13;;
71106;SDS011;58763;47.982;11.516;2023-03-31T02:17:52;10.45;;;5.85;;
71106;SDS011;58763;47.982;11.516;2023-03-31T02:20:23;10.95;;;6.13;;
71106;SDS011;58763;47.982;11.516;2023-03-31T02:22:54;11.50;;;6.30;;
71106;SDS011;58763;47.982;11.516;2023-03-31T02:25:22;12.15;;;6.10;;
71106;SDS011;58763;47.982;11.516;2023-03-31T02:27:58;11.27;;;6.20;;
71106;SDS011;58763;47.982;11.516;2023-03-31T02:30:37;11.55;;;6.20;;
71106;SDS011;58763;47.982;11.516;2023-03-31T02:33:10;12.10;;;6.07;;
71106;SDS011;58763;47.982;11.516;2023-03-31T02:35:36;10.60;;;5.72;;
71106;SDS011;58763;47.982;11.516;2023-03-31T02:38:01;10.13;;;5.60;;
71106;SDS011;58763;47.982;11.516;2023-03-31T02:40:30;10.50;;;5.78;;
71106;SDS011;58763;47.982;11.516;2023-03-31T02:42:56;10.75;;;6.07;;
71106;SDS011;58763;47.982;11.516;2023-03-31T02:45:35;9.20;;;5.70;;
71106;SDS011;58763;47.982;11.516;2023-03-31T02:48:02;10.70;;;5.63;;
71106;SDS011;58763;47.982;11.516;2023-03-31T02:50:30;8.70;;;5.50;;
71106;SDS011;58763;47.982;11.516;2023-03-31T02:53:22;9.75;;;5.95;;
71106;SDS011;58763;47.982;11.516;2023-03-31T02:55:58;8.52;;;5.85;;
71106;SDS011;58763;47.982;11.516;2023-03-31T02:58:50;13.18;;;5.65;;
71106;SDS011;58763;47.982;11.516;2023-03-31T03:01:26;10.68;;;5.82;;
71106;SDS011;58763;47.982;11.516;2023-03-31T03:04:17;9.60;;;5.82;;
71106;SDS011;58763;47.982;11.516;2023-03-31T03:07:06;9.02;;;5.35;;
71106;SDS011;58763;47.982;11.516;2023-03-31T03:12:44;8.77;;;5.97;;
71106;SDS011;58763;47.982;11.516;2023-03-31T03:15:27;8.45;;;5.60;;
71106;SDS011;58763;47.982;11.516;2023-03-31T03:18:00;7.20;;;4.82;;
71106;SDS011;58763;47.982;11.516;2023-03-31T03:20:27;10.32;;;5.43;;
71106;SDS011;58763;47.982;11.516;2023-03-31T03:22:58;10.48;;;4.80;;
71106;SDS011;58763;47.982;11.516;2023-03-31T03:25:24;9.60;;;5.60;;
71106;SDS011;58763;47.982;11.516;2023-03-31T03:27:49;10.13;;;5.47;;
71106;SDS011;58763;47.982;11.516;2023-03-31T03:30:17;11.75;;;5.95;;
71106;SDS011;58763;47.982;11.516;2023-03-31T03:32:43;9.70;;;5.85;;
71106;SDS011;58763;47.982;11.516;2023-03-31T03:35:09;10.40;;;5.82;;
71106;SDS011;58763;47.982;11.516;2023-03-31T03:37:35;10.35;;;6.22;;
71106;SDS011;58763;47.982;11.516;2023-03-31T03:40:01;10.05;;;5.97;;
71106;SDS011;58763;47.982;11.516;2023-03-31T03:42:29;9.25;;;5.78;;
71106;SDS011;58763;47.982;11.516;2023-03-31T03:44:55;11.68;;;6.20;;
71106;SDS011;58763;47.982;11.516;2023-03-31T03:47:21;12.32;;;5.80;;
71106;SDS011;58763;47.982;11.516;2023-03-31T03:49:46;13.98;;;6.38;;
71106;SDS011;58763;47.982;11.516;2023-03-31T03:52:13;9.63;;;5.88;;
71106;SDS011;58763;47.982;11.516;2023-03-31T03:54:39;10.93;;;5.68;;
71106;SDS011;58763;47.982;11.516;2023-03-31T03:57:05;10.65;;;5.65;;
71106;SDS011;58763;47.982;11.516;2023-03-31T03:59:31;9.13;;;5.63;;
71106;SDS011;58763;47.982;11.516;2023-03-31T04:01:57;15.70;;;6.03;;
71106;SDS011;58763;47.982;11.516;2023-03-31T04:04:23;10.82;;;5.55;;
71106;SDS011;58763;47.982;11.516;2023-03-31T04:06:48;12.68;;;5.85;;
71106;SDS011;58763;47.982;11.516;2023-03-31T04:09:14;11.60;;;5.45;;
71106;SDS011;58763;47.982;11.516;2023-03-31T04:11:40;12.52;;;5.35;;
71106;SDS011;58763;47.982;11.516;2023-03-31T04:14:06;10.88;;;5.75;;
71106;SDS011;58763;47.982;11.516;2023-03-31T04:16:31;9.38;;;5.53;;
71106;SDS011;58763;47.982;11.516;2023-03-31T04:18:58;10.82;;;5.55;;
71106;SDS011;58763;47.982;11.516;2023-03-31T04:21:28;11.15;;;5.78;;
71106;SDS011;58763;47.982;11.516;2023-03-31T04:23:54;9.98;;;5.25;;
71106;SDS011;58763;47.982;11.516;2023-03-31T04:28:56;10.05;;;5.20;;
71106;SDS011;58763;47.982;11.516;2023-03-31T04:31:25;10.32;;;5.72;;
71106;SDS011;58763;47.982;11.516;2023-03-31T04:33:52;13.35;;;6.07;;
71106;SDS011;58763;47.982;11.516;2023-03-31T04:36:18;10.27;;;5.82;;
71106;SDS011;58763;47.982;11.516;2023-03-31T04:38:44;9.95;;;5.88;;
71106;SDS011;58763;47.982;11.516;2023-03-31T04:41:17;10.88;;;6.13;;
71106;SDS011;58763;47.982;11.516;2023-03-31T04:43:43;9.13;;;5.75;;
71106;SDS011;58763;47.982;11.516;2023-03-31T04:46:09;12.50;;;6.07;;
71106;SDS011;58763;47.982;11.516;2023-03-31T04:48:35;10.60;;;6.07;;
71106;SDS011;58763;47.982;11.516;2023-03-31T04:51:02;11.32;;;6.57;;
71106;SDS011;58763;47.982;11.516;2023-03-31T04:53:27;9.82;;;5.97;;
71106;SDS011;58763;47.982;11.516;2023-03-31T04:55:53;10.25;;;5.40;;
71106;SDS011;58763;47.982;11.516;2023-03-31T04:58:19;10.02;;;5.43;;
71106;SDS011;58763;47.982;11.516;2023-03-31T05:00:44;11.35;;;6.47;;
71106;SDS011;58763;47.982;11.516;2023-03-31T05:03:09;11.93;;;6.32;;
71106;SDS011;58763;47.982;11.516;2023-03-31T05:05:35;17.60;;;9.63;;
71106;SDS011;58763;47.982;11.516;2023-03-31T05:08:02;15.77;;;8.80;;
71106;SDS011;58763;47.982;11.516;2023-03-31T05:10:28;11.98;;;7.63;;
71106;SDS011;58763;47.982;11.516;2023-03-31T05:12:57;12.48;;;6.65;;
71106;SDS011;58763;47.982;11.516;2023-03-31T05:15:23;13.98;;;7.28;;
71106;SDS011;58763;47.982;11.516;2023-03-31T05:17:49;20.33;;;10.73;;
71106;SDS011;58763;47.982;11.516;2023-03-31T05:20:15;15.18;;;8.40;;
71106;SDS011;58763;47.982;11.516;2023-03-31T05:22:41;14.25;;;7.03;;
71106;SDS011;58763;47.982;11.516;2023-03-31T05:25:07;30.52;;;13.55;;
71106;SDS011;58763;47.982;11.516;2023-03-31T05:27:34;40.90;;;16.25;;
71106;SDS011;58763;47.982;11.516;2023-03-31T05:30:01;33.13;;;12.63;;
71106;SDS011;58763;47.982;11.516;2023-03-31T05:32:27;44.95;;;17.17;;
71106;SDS011;58763;47.982;11.516;2023-03-31T05:34:54;58.53;;;21.52;;
71106;SDS011;58763;47.982;11.516;2023-03-31T05:37:23;29.30;;;12.50;;
71106;SDS011;58763;47.982;11.516;2023-03-31T05:39:49;13.60;;;6.88;;
71106;SDS011;58763;47.982;11.516;2023-03-31T05:42:15;13.25;;;6.63;;
71106;SDS011;58763;47.982;11.516;2023-03-31T05:44:41;11.52;;;7.15;;
71106;SDS011;58763;47.982;11.516;2023-03-31T05:47:06;11.25;;;6.32;;
71106;SDS011;58763;47.982;11.516;2023-03-31T05:49:32;12.43;;;6.20;;
71106;SDS011;58763;47.982;11.516;2023-03-31T05:51:58;11.27;;;6.78;;
71106;SDS011;58763;47.982;11.516;2023-03-31T05:54:23;13.68;;;6.53;;
71106;SDS011;58763;47.982;11.516;2023-03-31T05:56:49;11.20;;;5.78;;
71106;SDS011;58763;47.982;11.516;2023-03-31T05:59:15;10.20;;;5.63;;
71106;SDS011;58763;47.982;11.516;2023-03-31T06:01:41;9.82;;;6.40;;
71106;SDS011;58763;47.982;11.516;2023-03-31T06:04:06;11.10;;;6.43;;
71106;SDS011;58763;47.982;11.516;2023-03-31T06:06:32;12.25;;;6.75;;
71106;SDS011;58763;47.982;11.516;2023-03-31T06:08:59;10.20;;;6.65;;
71106;SDS011;58763;47.982;11.516;2023-03-31T06:11:24;14.10;;;6.50;;
71106;SDS011;58763;47.982;11.516;2023-03-31T06:13:50;11.32;;;7.10;;
71106;SDS011;58763;47.982;11.516;2023-03-31T06:16:17;12.20;;;7.13;;
71106;SDS011;58763;47.982;11.516;2023-03-31T06:18:43;11.65;;;6.70;;
71106;SDS011;58763;47.982;11.516;2023-03-31T06:21:14;12.45;;;7.38;;
71106;SDS011;58763;47.982;11.516;2023-03-31T06:23:41;17.65;;;10.57;;
71106;SDS011;58763;47.982;11.516;2023-03-31T06:26:17;13.02;;;8.60;;
71106;SDS011;58763;47.982;11.516;2023-03-31T06:28:44;13.70;;;6.40;;
71106;SDS011;58763;47.982;11.516;2023-03-31T06:31:12;9.70;;;6.00;;
71106;SDS011;58763;47.982;11.516;2023-03-31T06:33:39;10.90;;;6.38;;
71106;SDS011;58763;47.982;11.516;2023-03-31T06:36:06;13.40;;;6.90;;
71106;SDS011;58763;47.982;11.516;2023-03-31T06:38:33;12.23;;;6.70;;
71106;SDS011;58763;47.982;11.516;2023-03-31T06:41:00;10.52;;;6.03;;
71106;SDS011;58763;47.982;11.516;2023-03-31T06:43:27;13.85;;;6.60;;
71106;SDS011;58763;47.982;11.516;2023-03-31T06:45:53;13.23;;;6.60;;
71106;SDS011;58763;47.982;11.516;2023-03-31T06:48:19;13.38;;;5.90;;
71106;SDS011;58763;47.982;11.516;2023-03-31T06:50:45;10.32;;;6.03;;
71106;SDS011;58763;47.982;11.516;2023-03-31T06:53:10;12.20;;;6.90;;
71106;SDS011;58763;47.982;11.516;2023-03-31T06:55:36;11.43;;;6.75;;
71106;SDS011;58763;47.982;11.516;2023-03-31T06:58:05;12.00;;;6.38;;
71106;SDS011;58763;47.982;11.516;2023-03-31T07:00:31;9.35;;;5.50;;
71106;SDS011;58763;47.982;11.516;2023-03-31T07:02:57;12.18;;;5.00;;
71106;SDS011;58763;47.982;11.516;2023-03-31T07:05:24;9.20;;;5.60;;
71106;SDS011;58763;47.982;11.516;2023-03-31T07:07:53;10.13;;;5.20;;
71106;SDS011;58763;47.982;11.516;2023-03-31T07:10:20;10.35;;;5.32;;
71106;SDS011;58763;47.982;11.516;2023-03-31T07:12:47;10.27;;;5.47;;
71106;SDS011;58763;47.982;11.516;2023-03-31T07:15:13;9.52;;;5.13;;
71106;SDS011;58763;47.982;11.516;2023-03-31T07:17:39;9.05;;;4.88;;
71106;SDS011;58763;47.982;11.516;2023-03-31T07:20:09;8.38;;;4.97;;
71106;SDS011;58763;47.982;11.516;2023-03-31T07:22:42;11.25;;;5.10;;
71106;SDS011;58763;47.982;11.516;2023-03-31T07:25:10;10.27;;;4.90;;
71106;SDS011;58763;47.982;11.516;2023-03-31T07:27:37;8.05;;;4.50;;
71106;SDS011;58763;47.982;11.516;2023-03-31T07:30:06;8.68;;;4.75;;
71106;SDS011;58763;47.982;11.516;2023-03-31T07:32:36;9.35;;;5.70;;
71106;SDS011;58763;47.982;11.516;2023-03-31T07:35:05;11.65;;;5.60;;
71106;SDS011;58763;47.982;11.516;2023-03-31T07:37:39;10.85;;;6.07;;
71106;SDS011;58763;47.982;11.516;2023-03-31T07:40:08;11.45;;;6.13;;
71106;SDS011;58763;47.982;11.516;2023-03-31T07:42:35;11.60;;;5.57;;
71106;SDS011;58763;47.982;11.516;2023-03-31T07:45:02;9.32;;;5.88;;
71106;SDS011;58763;47.982;11.516;2023-03-31T07:47:31;9.93;;;6.03;;
71106;SDS011;58763;47.982;11.516;2023-03-31T07:49:57;10.95;;;5.85;;
71106;SDS011;58763;47.982;11.516;2023-03-31T07:52:22;9.30;;;5.28;;
71106;SDS011;58763;47.982;11.516;2023-03-31T07:54:48;13.43;;;7.35;;
71106;SDS011;58763;47.982;11.516;2023-03-31T07:57:14;12.25;;;7.13;;
71106;SDS011;58763;47.982;11.516;2023-03-31T07:59:42;9.35;;;6.20;;
71106;SDS011;58763;47.982;11.516;2023-03-31T08:02:09;10.60;;;5.80;;
71106;SDS011;58763;47.982;11.516;2023-03-31T08:04:39;12.18;;;6.10;;
71106;SDS011;58763;47.982;11.516;2023-03-31T08:07:11;11.85;;;6.38;;
71106;SDS011;58763;47.982;11.516;2023-03-31T08:09:38;9.57;;;6.40;;
71106;SDS011;58763;47.982;11.516;2023-03-31T08:12:05;11.60;;;6.85;;
71106;SDS011;58763;47.982;11.516;2023-03-31T08:14:31;12.00;;;6.20;;
71106;SDS011;58763;47.982;11.516;2023-03-31T08:16:57;11.68;;;6.22;;
71106;SDS011;58763;47.982;11.516;2023-03-31T08:19:24;11.40;;;6.35;;
71106;SDS011;58763;47.982;11.516;2023-03-31T08:21:50;16.92;;;6.88;;
71106;SDS011;58763;47.982;11.516;2023-03-31T08:24:16;9.50;;;6.03;;
71106;SDS011;58763;47.982;11.516;2023-03-31T08:26:42;10.20;;;6.00;;
71106;SDS011;58763;47.982;11.516;2023-03-31T08:29:08;13.00;;;6.07;;
71106;SDS011;58763;47.982;11.516;2023-03-31T08:31:34;12.00;;;5.80;;
71106;SDS011;58763;47.982;11.516;2023-03-31T08:33:59;11.43;;;6.20;;
71106;SDS011;58763;47.982;11.516;2023-03-31T08:36:25;10.13;;;5.20;;
71106;SDS011;58763;47.982;11.516;2023-03-31T08:38:51;8.77;;;5.05;;
71106;SDS011;58763;47.982;11.516;2023-03-31T08:41:25;7.85;;;4.50;;
71106;SDS011;58763;47.982;11.516;2023-03-31T08:44:06;9.02;;;4.85;;
71106;SDS011;58763;47.982;11.516;2023-03-31T08:46:38;8.88;;;5.10;;
71106;SDS011;58763;47.982;11.516;2023-03-31T08:49:05;10.00;;;4.93;;
71106;SDS011;58763;47.982;11.516;2023-03-31T08:51:37;9.25;;;5.25;;
71106;SDS011;58763;47.982;11.516;2023-03-31T08:56:41;8.80;;;5.40;;
71106;SDS011;58763;47.982;11.516;2023-03-31T09:05:13;12.90;;;6.78;;
71106;SDS011;58763;47.982;11.516;2023-03-31T09:10:42;12.63;;;6.53;;
71106;SDS011;58763;47.982;11.516;2023-03-31T09:16:15;9.27;;;5.53;;
71106;SDS011;58763;47.982;11.516;2023-03-31T09:18:47;14.73;;;6.50;;
71106;SDS011;58763;47.982;11.516;2023-03-31T09:21:22;7.50;;;4.47;;
71106;SDS011;58763;47.982;11.516;2023-03-31T09:23:58;8.02;;;4.85;;
71106;SDS011;58763;47.982;11.516;2023-03-31T09:26:38;7.07;;;4.18;;
71106;SDS011;58763;47.982;11.516;2023-03-31T09:29:16;7.57;;;4.18;;
71106;SDS011;58763;47.982;11.516;2023-03-31T09:31:51;7.43;;;4.28;;
71106;SDS011;58763;47.982;11.516;2023-03-31T09:34:23;8.13;;;3.75;;
71106;SDS011;58763;47.982;11.516;2023-03-31T09:36:51;6.63;;;3.70;;
71106;SDS011;58763;47.982;11.516;2023-03-31T09:39:16;5.28;;;3.05;;
71106;SDS011;58763;47.982;11.516;2023-03-31T09:41:45;6.80;;;3.40;;
71106;SDS011;58763;47.982;11.516;2023-03-31T09:44:21;5.95;;;3.63;;
71106;SDS011;58763;47.982;11.516;2023-03-31T09:47:16;8.30;;;3.72;;
71106;SDS011;58763;47.982;11.516;2023-03-31T09:49:51;6.53;;;3.15;;
71106;SDS011;58763;47.982;11.516;2023-03-31T09:54:52;8.65;;;3.70;;
71106;SDS011;58763;47.982;11.516;2023-03-31T09:57:25;7.70;;;3.88;;
71106;SDS011;58763;47.982;11.516;2023-03-31T10:00:03;7.95;;;3.70;;
71106;SDS011;58763;47.982;11.516;2023-03-31T10:02:41;7.22;;;4.05;;
71106;SDS011;58763;47.982;11.516;2023-03-31T10:10:48;6.15;;;3.50;;
71106;SDS011;58763;47.982;11.516;2023-03-31T10:13:20;5.38;;;2.90;;
71106;SDS011;58763;47.982;11.516;2023-03-31T10:15:50;7.05;;;3.03;;
71106;SDS011;58763;47.982;11.516;2023-03-31T10:18:18;7.13;;;3.03;;
71106;SDS011;58763;47.982;11.516;2023-03-31T10:20:49;5.32;;;2.85;;
71106;SDS011;58763;47.982;11.516;2023-03-31T10:25:55;4.97;;;2.80;;
71106;SDS011;58763;47.982;11.516;2023-03-31T10:28:21;6.00;;;2.90;;
71106;SDS011;58763;47.982;11.516;2023-03-31T10:30:51;4.93;;;2.88;;
71106;SDS011;58763;47.982;11.516;2023-03-31T10:33:20;6.50;;;3.20;;
71106;SDS011;58763;47.982;11.516;2023-03-31T10:35:53;6.40;;;2.75;;
71106;SDS011;58763;47.982;11.516;2023-03-31T10:38:29;5.78;;;2.85;;
71106;SDS011;58763;47.982;11.516;2023-03-31T10:40:59;7.28;;;3.10;;
71106;SDS011;58763;47.982;11.516;2023-03-31T10:43:29;6.78;;;3.33;;
71106;SDS011;58763;47.982;11.516;2023-03-31T10:46:01;5.05;;;2.92;;
71106;SDS011;58763;47.982;11.516;2023-03-31T10:48:32;7.13;;;3.42;;
71106;SDS011;58763;47.982;11.516;2023-03-31T10:51:04;8.13;;;3.65;;
71106;SDS011;58763;47.982;11.516;2023-03-31T10:53:43;9.18;;;3.58;;
71106;SDS011;58763;47.982;11.516;2023-03-31T10:56:17;6.15;;;3.67;;
71106;SDS011;58763;47.982;11.516;2023-03-31T10:58:55;7.30;;;4.20;;
71106;SDS011;58763;47.982;11.516;2023-03-31T11:04:28;7.30;;;3.85;;
71106;SDS011;58763;47.982;11.516;2023-03-31T11:07:11;9.27;;;4.68;;
71106;SDS011;58763;47.982;11.516;2023-03-31T11:09:59;8.02;;;4.43;;
71106;SDS011;58763;47.982;11.516;2023-03-31T11:13:19;6.97;;;4.43;;
71106;SDS011;58763;47.982;11.516;2023-03-31T11:15:52;8.13;;;4.80;;
71106;SDS011;58763;47.982;11.516;2023-03-31T11:18:34;9.25;;;5.20;;
71106;SDS011;58763;47.982;11.516;2023-03-31T11:21:14;5.45;;;2.72;;
71106;SDS011;58763;47.982;11.516;2023-03-31T11:23:56;5.72;;;2.35;;
71106;SDS011;58763;47.982;11.516;2023-03-31T11:31:49;6.00;;;2.15;;
71106;SDS011;58763;47.982;11.516;2023-03-31T11:40:28;4.30;;;1.70;;
71106;SDS011;58763;47.982;11.516;2023-03-31T11:43:06;4.45;;;1.65;;
71106;SDS011;58763;47.982;11.516;2023-03-31T11:45:48;5.40;;;1.90;;
71106;SDS011;58763;47.982;11.516;2023-03-31T11:48:32;4.28;;;1.52;;
71106;SDS011;58763;47.982;11.516;2023-03-31T11:51:04;3.88;;;1.48;;
71106;SDS011;58763;47.982;11.516;2023-03-31T11:53:35;4.20;;;1.55;;
71106;SDS011;58763;47.982;11.516;2023-03-31T11:56:03;4.63;;;1.88;;
71106;SDS011;58763;47.982;11.516;2023-03-31T11:58:35;3.80;;;1.83;;
71106;SDS011;58763;47.982;11.516;2023-03-31T12:06:45;4.28;;;1.83;;
71106;SDS011;58763;47.982;11.516;2023-03-31T12:14:33;4.00;;;1.80;;
71106;SDS011;58763;47.982;11.516;2023-03-31T12:24:58;5.28;;;2.60;;
71106;SDS011;58763;47.982;11.516;2023-03-31T12:27:33;4.82;;;2.15;;
71106;SDS011;58763;47.982;11.516;2023-03-31T12:35:17;4.90;;;2.40;;
71106;SDS011;58763;47.982;11.516;2023-03-31T12:46:25;4.60;;;2.67;;
71106;SDS011;58763;47.982;11.516;2023-03-31T12:51:40;5.35;;;2.80;;
71106;SDS011;58763;47.982;11.516;2023-03-31T12:54:23;5.88;;;2.50;;
71106;SDS011;58763;47.982;11.516;2023-03-31T12:59:37;4.80;;;1.80;;
71106;SDS011;58763;47.982;11.516;2023-03-31T13:04:34;2.00;;;0.80;;
71106;SDS011;58763;47.982;11.516;2023-03-31T13:07:01;2.95;;;0.75;;
71106;SDS011;58763;47.982;11.516;2023-03-31T13:11:55;2.63;;;0.73;;
71106;SDS011;58763;47.982;11.516;2023-03-31T13:14:22;2.13;;;0.65;;
71106;SDS011;58763;47.982;11.516;2023-03-31T13:16:49;7.20;;;1.00;;
71106;SDS011;58763;47.982;11.516;2023-03-31T13:22:30;3.55;;;0.90;;
71106;SDS011;58763;47.982;11.516;2023-03-31T13:28:08;3.47;;;1.00;;
71106;SDS011;58763;47.982;11.516;2023-03-31T13:35:56;4.68;;;2.17;;
71106;SDS011;58763;47.982;11.516;2023-03-31T13:38:46;5.85;;;1.58;;
71106;SDS011;58763;47.982;11.516;2023-03-31T13:41:35;2.50;;;0.95;;
71106;SDS011;58763;47.982;11.516;2023-03-31T13:49:52;3.53;;;1.00;;
71106;SDS011;58763;47.982;11.516;2023-03-31T13:52:27;3.22;;;1.20;;
71106;SDS011;58763;47.982;11.516;2023-03-31T13:55:10;3.30;;;1.00;;
71106;SDS011;58763;47.982;11.516;2023-03-31T13:58:04;3.17;;;1.20;;
71106;SDS011;58763;47.982;11.516;2023-03-31T14:00:52;5.25;;;1.33;;
71106;SDS011;58763;47.982;11.516;2023-03-31T14:06:55;4.30;;;1.25;;
71106;SDS011;58763;47.982;11.516;2023-03-31T14:09:20;3.67;;;1.30;;
71106;SDS011;58763;47.982;11.516;2023-03-31T14:11:51;3.55;;;1.35;;
71106;SDS011;58763;47.982;11.516;2023-03-31T14:14:17;5.10;;;1.65;;
71106;SDS011;58763;47.982;11.516;2023-03-31T14:30:13;3.30;;;1.35;;
71106;SDS011;58763;47.982;11.516;2023-03-31T14:38:34;3.85;;;1.15;;
71106;SDS011;58763;47.982;11.516;2023-03-31T14:41:00;1.73;;;0.43;;
71106;SDS011;58763;47.982;11.516;2023-03-31T14:43:35;5.72;;;0.75;;
71106;SDS011;58763;47.982;11.516;2023-03-31T14:46:10;1.90;;;0.65;;
71106;SDS011;58763;47.982;11.516;2023-03-31T14:48:40;1.48;;;0.40;;
71106;SDS011;58763;47.982;11.516;2023-03-31T14:51:13;4.20;;;0.60;;
71106;SDS011;58763;47.982;11.516;2023-03-31T14:53:40;0.95;;;0.35;;
71106;SDS011;58763;47.982;11.516;2023-03-31T14:56:08;3.65;;;0.40;;
71106;SDS011;58763;47.982;11.516;2023-03-31T14:58:39;3.97;;;0.60;;
71106;SDS011;58763;47.982;11.516;2023-03-31T15:01:08;1.10;;;0.47;;
71106;SDS011;58763;47.982;11.516;2023-03-31T15:03:41;3.15;;;0.45;;
71106;SDS011;58763;47.982;11.516;2023-03-31T15:06:08;1.33;;;0.40;;
71106;SDS011;58763;47.982;11.516;2023-03-31T15:08:35;1.70;;;0.50;;
71106;SDS011;58763;47.982;11.516;2023-03-31T15:11:04;2.45;;;0.47;;
71106;SDS011;58763;47.982;11.516;2023-03-31T15:13:33;2.33;;;0.60;;
71106;SDS011;58763;47.982;11.516;2023-03-31T15:15:59;1.33;;;0.50;;
71106;SDS011;58763;47.982;11.516;2023-03-31T15:18:43;1.38;;;0.50;;
71106;SDS011;58763;47.982;11.516;2023-03-31T15:21:09;3.42;;;0.52;;
71106;SDS011;58763;47.982;11.516;2023-03-31T15:23:44;3.33;;;0.60;;
71106;SDS011;58763;47.982;11.516;2023-03-31T15:26:10;1.77;;;0.55;;
71106;SDS011;58763;47.982;11.516;2023-03-31T15:28:42;1.92;;;0.70;;
71106;SDS011;58763;47.982;11.516;2023-03-31T15:31:17;1.55;;;0.60;;
71106;SDS011;58763;47.982;11.516;2023-03-31T15:33:43;2.40;;;0.50;;
71106;SDS011;58763;47.982;11.516;2023-03-31T15:36:11;3.10;;;0.77;;
71106;SDS011;58763;47.982;11.516;2023-03-31T15:38:37;2.22;;;0.50;;
71106;SDS011;58763;47.982;11.516;2023-03-31T15:41:09;3.33;;;0.50;;
71106;SDS011;58763;47.982;11.516;2023-03-31T15:43:46;2.78;;;0.70;;
71106;SDS011;58763;47.982;11.516;2023-03-31T15:49:08;1.85;;;0.68;;
71106;SDS011;58763;47.982;11.516;2023-03-31T15:51:47;3.28;;;0.73;;
71106;SDS011;58763;47.982;11.516;2023-03-31T15:54:28;4.00;;;0.70;;
71106;SDS011;58763;47.982;11.516;2023-03-31T15:57:05;4.53;;;1.00;;
71106;SDS011;58763;47.982;11.516;2023-03-31T15:59:48;2.15;;;0.70;;
71106;SDS011;58763;47.982;11.516;2023-03-31T16:02:19;4.53;;;1.00;;
71106;SDS011;58763;47.982;11.516;2023-03-31T16:04:49;5.25;;;0.98;;
71106;SDS011;58763;47.982;11.516;2023-03-31T16:07:52;4.25;;;0.68;;
71106;SDS011;58763;47.982;11.516;2023-03-31T16:10:20;2.03;;;0.88;;
71106;SDS011;58763;47.982;11.516;2023-03-31T16:12:55;2.88;;;0.90;;
71106;SDS011;58763;47.982;11.516;2023-03-31T16:15:29;2.13;;;1.00;;
71106;SDS011;58763;47.982;11.516;2023-03-31T16:18:02;3.25;;;1.17;;
71106;SDS011;58763;47.982;11.516;2023-03-31T16:20:37;2.90;;;0.95;;
71106;SDS011;58763;47.982;11.516;2023-03-31T16:23:20;2.30;;;0.70;;
71106;SDS011;58763;47.982;11.516;2023-03-31T16:25:51;4.35;;;1.02;;
71106;SDS011;58763;47.982;11.516;2023-03-31T16:28:19;3.55;;;0.90;;
71106;SDS011;58763;47.982;11.516;2023-03-31T16:30:47;2.13;;;0.80;;
71106;SDS011;58763;47.982;11.516;2023-03-31T16:33:17;3.65;;;1.08;;
71106;SDS011;58763;47.982;11.516;2023-03-31T16:35:46;4.20;;;1.00;;
71106;SDS011;58763;47.982;11.516;2023-03-31T16:38:17;3.25;;;1.10;;
71106;SDS011;58763;47.982;11.516;2023-03-31T16:40:46;2.83;;;0.90;;
71106;SDS011;58763;47.982;11.516;2023-03-31T16:43:14;4.15;;;0.90;;
71106;SDS011;58763;47.982;11.516;2023-03-31T16:45:48;5.50;;;0.98;;
71106;SDS011;58763;47.982;11.516;2023-03-31T16:48:15;3.05;;;0.80;;
71106;SDS011;58763;47.982;11.516;2023-03-31T16:50:43;4.60;;;0.85;;
71106;SDS011;58763;47.982;11.516;2023-03-31T16:53:11;4.95;;;0.73;;
71106;SDS011;58763;47.982;11.516;2023-03-31T16:55:41;1.55;;;0.82;;
71106;SDS011;58763;47.982;11.516;2023-03-31T16:58:07;3.13;;;0.60;;
71106;SDS011;58763;47.982;11.516;2023-03-31T17:00:33;2.45;;;0.80;;
71106;SDS011;58763;47.982;11.516;2023-03-31T17:03:00;3.75;;;0.98;;
71106;SDS011;58763;47.982;11.516;2023-03-31T17:05:30;1.35;;;0.50;;
71106;SDS011;58763;47.982;11.516;2023-03-31T17:07:58;1.45;;;0.50;;
71106;SDS011;58763;47.982;11.516;2023-03-31T17:10:24;0.95;;;0.40;;
71106;SDS011;58763;47.982;11.516;2023-03-31T17:12:50;1.33;;;0.40;;
71106;SDS011;58763;47.982;11.516;2023-03-31T17:15:16;1.60;;;0.45;;
71106;SDS011;58763;47.982;11.516;2023-03-31T17:17:42;2.22;;;0.50;;
71106;SDS011;58763;47.982;11.516;2023-03-31T17:20:07;0.82;;;0.30;;
71106;SDS011;58763;47.982;11.516;2023-03-31T17:22:34;0.80;;;0.30;;
71106;SDS011;58763;47.982;11.516;2023-03-31T17:25:00;1.02;;;0.40;;
71106;SDS011;58763;47.982;11.516;2023-03-31T17:27:27;1.00;;;0.38;;